Academy, New Jersey
Current Conditions -  °F | °C
As of 6:51 AM on Thursday 29 Jan 2015 (Local Time) from KEWR Reporting Station
Few Clouds Few Clouds  
Wind Chill: -12°   Ceiling: Unl
Heat Index: -8°   Visibility: 10mi
Dew Point: -17°   Wind: 5mph
Humidity: 52%   Direction: 300°WNW
Pressure: 30.34"   Gusts: NA
Location:  40.7334°N, 74.1735°W
Report Text: KEWR 291151Z 30004KT 10SM FEW250 M08/M17 A3034 RMK AO2 SLP272 4/006 T10831167 11050 21111 53005
Loading
Personal Weather Stations






























Interactive Weather Map New forecast layout! Learn more

10-Day Weather Forecast

Advertisements
Track Severe Weather on mobile